Time;durP1;ratioP1;P1;durP2;ratioP2;P2;SDS_P1;SDS_P2;PMS_P1;PMS_P2;Temp;Humidity;BMP_temperature;BMP_pressure;BME280_temperature;BME280_humidity;BME280_pressure;Samples;Min_cycle;Max_cycle;Signal;HPM_P1;HPM_P2
2022/08/03 00:01:17;;;;;;;7.40;4.72;;;;;;;24.22;58.60;100406.09;5083378;28;20111;-66
2022/08/03 00:03:43;;;;;;;8.85;5.00;;;;;;;24.16;58.94;100408.88;5062533;28;20478;-68
2022/08/03 00:06:08;;;;;;;6.43;4.70;;;;;;;24.08;59.27;100406.38;5076070;28;20060;-68
2022/08/03 00:08:34;;;;;;;6.63;4.97;;;;;;;23.93;59.76;100403.91;5084293;28;20028;-67
2022/08/03 00:11:00;;;;;;;5.60;5.05;;;;;;;23.89;60.48;100408.16;5078985;28;20101;-68
2022/08/03 00:13:25;;;;;;;6.50;5.00;;;;;;;23.83;60.42;100406.28;5075869;28;20051;-68
2022/08/03 00:15:51;;;;;;;8.57;4.85;;;;;;;23.78;60.52;100417.06;5078390;28;20016;-67
2022/08/03 00:18:17;;;;;;;9.48;4.80;;;;;;;23.71;61.01;100418.16;5072186;28;20102;-68
2022/08/03 00:20:43;;;;;;;5.82;5.05;;;;;;;23.64;61.44;100417.34;5082424;28;20569;-68
2022/08/03 00:23:08;;;;;;;7.38;4.75;;;;;;;23.59;61.49;100414.38;5082094;28;20024;-67
2022/08/03 00:25:34;;;;;;;9.50;5.10;;;;;;;23.52;61.83;100419.91;5069813;28;20047;-68
2022/08/03 00:28:01;;;;;;;5.82;5.28;;;;;;;23.46;61.69;100415.28;5077924;28;20096;-69
2022/08/03 00:30:27;;;;;;;6.55;5.05;;;;;;;23.36;61.95;100409.41;5072602;28;20084;-67
2022/08/03 00:32:52;;;;;;;5.55;4.93;;;;;;;23.32;62.10;100415.53;5065491;28;20548;-68
2022/08/03 00:35:18;;;;;;;6.97;4.50;;;;;;;23.27;62.04;100421.66;5069223;28;20016;-67
2022/08/03 00:37:43;;;;;;;8.95;5.03;;;;;;;23.21;62.67;100417.00;5071499;28;20028;-68
2022/08/03 00:40:12;;;;;;;5.95;4.55;;;;;;;23.12;62.71;100414.72;5085867;28;20035;-69
2022/08/03 00:42:50;;;;;;;6.10;5.50;;;;;;;23.04;62.96;100417.66;5068627;28;20044;-70
2022/08/03 00:45:17;;;;;;;5.28;4.78;;;;;;;22.96;63.17;100417.88;5085644;28;20055;-67
2022/08/03 00:47:43;;;;;;;6.28;4.50;;;;;;;22.89;63.66;100415.13;5075787;28;20021;-69
2022/08/03 00:50:09;;;;;;;7.13;4.95;;;;;;;22.82;64.34;100416.22;5080037;28;20037;-68
2022/08/03 00:52:34;;;;;;;6.90;5.05;;;;;;;22.63;64.57;100389.72;5070715;28;20116;-68
2022/08/03 00:55:01;;;;;;;6.18;4.95;;;;;;;22.71;65.02;100420.44;5066774;28;20174;-67
2022/08/03 00:57:29;;;;;;;7.32;5.38;;;;;;;22.64;65.54;100419.59;5079138;28;20417;-68
2022/08/03 00:59:55;;;;;;;9.00;5.40;;;;;;;22.54;65.70;100397.28;5081291;28;20055;-68
2022/08/03 01:02:20;;;;;;;7.18;5.28;;;;;;;22.55;65.72;100409.03;5077183;28;20024;-68
2022/08/03 01:04:46;;;;;;;7.97;5.28;;;;;;;22.48;66.01;100419.97;5087898;28;20032;-67
2022/08/03 01:07:29;;;;;;;7.53;5.60;;;;;;;22.49;66.27;100423.50;5082518;28;20024;-68
2022/08/03 01:10:05;;;;;;;6.25;5.30;;;;;;;22.46;66.41;100416.59;5074943;28;20449;-68
2022/08/03 01:12:37;;;;;;;8.02;5.47;;;;;;;22.44;66.54;100415.13;5057657;28;20036;-68
2022/08/03 01:15:19;;;;;;;10.48;5.22;;;;;;;22.40;66.60;100417.41;5079972;28;20485;-67
2022/08/03 01:18:06;;;;;;;8.57;5.85;;;;;;;22.39;67.03;100418.47;5084910;28;20043;-67
2022/08/03 01:20:35;;;;;;;7.15;6.10;;;;;;;22.27;66.82;100398.25;5075170;28;20033;-67
2022/08/03 01:23:16;;;;;;;8.05;4.90;;;;;;;22.32;66.98;100410.25;5076889;28;20040;-67
2022/08/03 01:26:15;;;;;;;6.13;5.28;;;;;;;22.29;67.34;100418.84;5074453;28;20056;-68
2022/08/03 01:28:54;;;;;;;6.38;5.43;;;;;;;22.25;67.58;100423.06;5072700;28;20032;-69
2022/08/03 01:31:27;;;;;;;6.78;5.40;;;;;;;22.19;67.91;100418.41;5075456;28;20096;-68
2022/08/03 01:33:57;;;;;;;6.20;5.30;;;;;;;22.12;68.36;100419.47;5062159;28;20020;-69
2022/08/03 01:36:28;;;;;;;5.80;5.20;;;;;;;21.99;68.15;100403.88;5082507;28;20039;-68
2022/08/03 01:38:57;;;;;;;6.03;5.50;;;;;;;22.05;68.39;100418.59;5075151;28;20588;-67
2022/08/03 01:41:32;;;;;;;7.05;5.47;;;;;;;21.98;68.34;100421.31;5084242;28;20462;-67
2022/08/03 01:44:00;;;;;;;5.53;5.03;;;;;;;21.93;68.53;100417.53;5085393;28;20017;-67
2022/08/03 01:46:28;;;;;;;6.43;5.72;;;;;;;21.89;68.73;100419.81;5077199;28;20492;-67
2022/08/03 01:48:56;;;;;;;6.95;5.60;;;;;;;21.85;68.37;100420.44;5061288;28;20040;-68
2022/08/03 01:51:22;;;;;;;7.03;5.15;;;;;;;21.81;68.40;100416.44;5081687;28;20089;-67
2022/08/03 01:53:49;;;;;;;8.10;5.60;;;;;;;21.78;68.27;100411.38;5087538;28;20471;-67
2022/08/03 01:56:18;;;;;;;10.18;5.85;;;;;;;21.75;68.38;100412.63;5079430;28;20020;-68
2022/08/03 01:58:47;;;;;;;8.13;5.63;;;;;;;21.69;68.46;100410.69;5071593;28;20486;-68
2022/08/03 02:01:15;;;;;;;6.93;6.00;;;;;;;21.63;68.85;100413.38;5068534;28;20033;-67
2022/08/03 02:03:43;;;;;;;6.72;5.82;;;;;;;21.44;69.17;100384.94;5074080;28;20028;-68
2022/08/03 02:06:11;;;;;;;6.22;5.65;;;;;;;21.49;69.48;100411.63;5083795;28;20105;-68
2022/08/03 02:08:39;;;;;;;6.65;5.60;;;;;;;21.40;69.45;100404.66;5078247;28;20039;-68
2022/08/03 02:11:05;;;;;;;9.50;5.90;;;;;;;21.37;69.95;100410.50;5084419;28;20484;-68
2022/08/03 02:13:33;;;;;;;9.43;6.00;;;;;;;21.27;70.58;100408.16;5087218;28;20032;-68
2022/08/03 02:16:01;;;;;;;8.00;6.03;;;;;;;21.29;71.14;100411.53;5078393;28;20085;-67
2022/08/03 02:18:28;;;;;;;6.65;5.50;;;;;;;21.25;71.51;100415.69;5076030;28;20678;-67
2022/08/03 02:20:54;;;;;;;7.55;5.53;;;;;;;21.22;71.36;100412.53;5077955;28;20039;-68
2022/08/03 02:23:20;;;;;;;10.10;6.18;;;;;;;21.14;71.94;100404.50;5073411;28;20469;-68
2022/08/03 02:25:50;;;;;;;7.10;5.90;;;;;;;21.14;71.69;100397.16;5067924;28;20032;-68
2022/08/03 02:28:19;;;;;;;16.05;6.35;;;;;;;21.13;72.72;100402.81;5086448;28;20030;-67
2022/08/03 02:30:49;;;;;;;9.43;6.63;;;;;;;21.10;72.69;100404.09;5088280;28;20032;-68
2022/08/03 02:33:18;;;;;;;7.22;6.18;;;;;;;21.08;72.62;100405.31;5057625;28;20020;-66
2022/08/03 02:35:47;;;;;;;12.35;6.43;;;;;;;21.00;72.57;100392.69;5083765;28;20066;-68
2022/08/03 02:38:15;;;;;;;11.60;7.05;;;;;;;21.05;73.52;100400.28;5081984;28;20028;-68
2022/08/03 02:40:44;;;;;;;11.85;7.30;;;;;;;20.97;73.53;100389.50;5064416;28;20024;-68
2022/08/03 02:43:16;;;;;;;11.60;7.13;;;;;;;20.98;73.44;100408.41;5076265;28;20363;-66
2022/08/03 02:45:44;;;;;;;10.20;6.13;;;;;;;20.98;73.32;100410.28;5081154;28;20542;-67
2022/08/03 02:48:11;;;;;;;10.55;6.25;;;;;;;20.96;73.14;100410.47;5071772;28;20029;-66
2022/08/03 02:50:38;;;;;;;9.60;6.38;;;;;;;20.83;73.26;100387.72;5052629;28;20077;-66
2022/08/03 02:53:05;;;;;;;7.68;5.90;;;;;;;20.95;73.00;100407.94;5089783;28;20044;-67
2022/08/03 02:55:33;;;;;;;9.70;6.82;;;;;;;20.86;72.65;100401.75;5087997;28;20274;-68
2022/08/03 02:57:59;;;;;;;7.95;5.90;;;;;;;20.89;72.59;100408.72;5082257;28;20040;-68
2022/08/03 03:00:25;;;;;;;8.35;5.88;;;;;;;20.85;72.50;100415.59;5083546;28;20027;-68
2022/08/03 03:02:52;;;;;;;9.05;6.25;;;;;;;20.80;72.58;100410.72;5077355;28;20561;-68
2022/08/03 03:05:18;;;;;;;9.32;5.90;;;;;;;20.77;72.59;100407.56;5087255;28;20493;-68
2022/08/03 03:07:44;;;;;;;9.68;5.90;;;;;;;20.72;73.15;100412.75;5077188;28;20024;-68
2022/08/03 03:10:11;;;;;;;9.70;6.45;;;;;;;20.67;73.84;100409.81;5069061;28;20086;-67
2022/08/03 03:12:37;;;;;;;11.77;6.75;;;;;;;20.48;74.06;100389.53;5074173;28;20198;-68
2022/08/03 03:15:06;;;;;;;14.02;7.00;;;;;;;20.59;74.53;100415.38;5067237;28;20021;-68
2022/08/03 03:17:33;;;;;;;10.38;7.75;;;;;;;20.44;74.85;100398.28;5066226;28;20020;-68
2022/08/03 03:19:59;;;;;;;16.48;6.93;;;;;;;20.38;75.27;100399.91;5073060;28;20028;-68
2022/08/03 03:22:26;;;;;;;11.00;7.45;;;;;;;20.33;75.65;100396.06;5068279;28;20032;-68
2022/08/03 03:24:53;;;;;;;9.70;6.57;;;;;;;20.39;75.55;100425.25;5070655;28;20041;-68
2022/08/03 03:27:20;;;;;;;10.30;6.78;;;;;;;20.30;76.07;100410.09;5069752;28;20028;-67
2022/08/03 03:29:46;;;;;;;11.52;7.50;;;;;;;20.24;76.44;100405.44;5066778;28;20028;-67
2022/08/03 03:32:12;;;;;;;11.57;7.35;;;;;;;20.27;76.85;100407.75;5072437;28;20485;-68
2022/08/03 03:34:37;;;;;;;21.48;7.18;;;;;;;20.30;76.35;100420.97;5069159;28;20154;-68
2022/08/03 03:37:04;;;;;;;15.10;6.70;;;;;;;20.30;75.87;100421.84;5071671;28;20035;-67
2022/08/03 03:39:29;;;;;;;9.20;6.43;;;;;;;20.27;75.48;100419.50;5068928;28;20441;-67
2022/08/03 03:41:56;;;;;;;8.55;6.80;;;;;;;20.27;75.61;100424.94;5071466;28;20029;-67
2022/08/03 03:44:26;;;;;;;9.98;6.97;;;;;;;20.26;76.18;100419.69;5069084;28;20036;-68
2022/08/03 03:46:52;;;;;;;7.43;6.25;;;;;;;20.24;76.70;100421.78;5055257;28;20458;-68
2022/08/03 03:49:24;;;;;;;8.75;7.20;;;;;;;20.29;76.64;100430.19;5070230;28;20036;-67
2022/08/03 03:51:55;;;;;;;11.02;7.00;;;;;;;20.17;77.05;100397.19;5074599;28;20106;-68
2022/08/03 03:54:24;;;;;;;10.80;7.22;;;;;;;20.33;77.15;100431.50;5071697;28;20338;-68
2022/08/03 03:56:49;;;;;;;8.43;6.40;;;;;;;20.34;77.12;100433.19;5072336;28;20048;-67
2022/08/03 03:59:15;;;;;;;9.80;7.18;;;;;;;20.22;77.33;100419.25;5069144;28;20028;-68
2022/08/03 04:01:41;;;;;;;9.10;7.57;;;;;;;20.29;77.52;100439.22;5079753;28;20097;-68
2022/08/03 04:12:27;;;;;;;14.57;7.65;;;;;;;20.35;77.77;100437.59;5077172;28;20519;-65
2022/08/03 04:14:57;;;;;;;17.80;8.55;;;;;;;20.38;78.38;100446.25;5078108;28;20027;-65
2022/08/03 04:17:27;;;;;;;60.05;10.57;;;;;;;20.44;78.13;100450.88;5070964;28;20525;-66
2022/08/03 04:19:53;;;;;;;38.85;11.05;;;;;;;20.47;78.06;100438.78;5082131;28;20028;-65
2022/08/03 04:22:24;;;;;;;32.90;10.20;;;;;;;20.57;78.47;100453.72;5071768;28;20139;-67
2022/08/03 04:25:04;;;;;;;22.70;8.75;;;;;;;20.58;78.64;100443.69;5073765;28;20016;-67
2022/08/03 04:27:35;;;;;;;15.10;8.90;;;;;;;20.76;78.58;100457.69;5081992;28;20032;-67
2022/08/03 04:30:04;;;;;;;17.10;9.10;;;;;;;20.84;78.80;100454.81;5087144;28;20025;-67
2022/08/03 04:32:30;;;;;;;15.23;9.23;;;;;;;20.80;79.13;100429.81;5073198;28;20045;-67
2022/08/03 04:34:56;;;;;;;16.77;9.68;;;;;;;21.01;78.95;100451.63;5093046;28;20035;-66
2022/08/03 04:37:38;;;;;;;13.10;9.50;;;;;;;21.18;78.48;100454.91;5082157;28;20507;-66
2022/08/03 04:40:08;;;;;;;14.25;9.38;;;;;;;21.27;78.45;100457.28;5081314;28;20385;-67
2022/08/03 04:42:36;;;;;;;12.57;9.07;;;;;;;21.41;77.77;100456.31;5073629;28;20519;-66
2022/08/03 04:45:03;;;;;;;15.07;9.73;;;;;;;21.53;77.49;100449.25;5067337;28;20021;-66
2022/08/03 04:47:32;;;;;;;11.65;9.63;;;;;;;21.64;77.17;100453.28;5077720;28;20028;-66
2022/08/03 04:49:59;;;;;;;16.58;9.35;;;;;;;21.81;76.72;100455.50;5071419;28;20024;-67
2022/08/03 04:52:25;;;;;;;11.90;9.07;;;;;;;21.83;76.62;100428.81;5085823;28;20559;-64
2022/08/03 04:54:51;;;;;;;17.95;10.15;;;;;;;22.13;76.04;100456.69;5081577;28;20036;-65
2022/08/03 04:57:17;;;;;;;13.48;9.10;;;;;;;22.28;75.50;100466.38;5068063;28;20055;-63
2022/08/03 04:59:43;;;;;;;26.45;10.60;;;;;;;22.43;75.00;100463.47;5081795;28;20393;-63
2022/08/03 05:02:09;;;;;;;22.83;9.50;;;;;;;22.56;74.28;100459.94;5073638;28;20032;-65
2022/08/03 05:04:34;;;;;;;24.35;10.40;;;;;;;22.73;73.92;100458.50;5077909;28;20044;-65
2022/08/03 05:07:00;;;;;;;21.75;9.30;;;;;;;22.88;73.07;100462.72;5072425;28;20060;-65
2022/08/03 05:09:25;;;;;;;15.65;8.70;;;;;;;23.07;72.06;100466.47;5075320;28;20024;-66
2022/08/03 05:11:51;;;;;;;17.70;8.68;;;;;;;23.22;71.64;100465.22;5072584;28;20028;-66
2022/08/03 05:14:16;;;;;;;12.93;8.68;;;;;;;23.37;70.71;100462.25;5067225;28;20017;-66
2022/08/03 05:16:42;;;;;;;21.40;9.57;;;;;;;23.56;70.10;100464.97;5075336;28;20397;-67
2022/08/03 05:19:07;;;;;;;13.40;8.18;;;;;;;23.72;69.37;100472.72;5068087;28;20032;-66
2022/08/03 05:21:33;;;;;;;13.90;7.53;;;;;;;23.91;68.59;100470.94;5065246;28;20024;-66
2022/08/03 05:23:58;;;;;;;9.32;7.68;;;;;;;24.02;67.46;100451.13;5073213;28;20036;-66
2022/08/03 05:26:24;;;;;;;12.80;8.57;;;;;;;24.31;66.01;100467.84;5081876;28;20046;-66
2022/08/03 05:28:49;;;;;;;12.55;7.95;;;;;;;24.47;65.31;100471.94;5068362;28;20032;-64
2022/08/03 05:31:15;;;;;;;10.73;8.23;;;;;;;24.61;64.88;100472.72;5082882;28;20039;-64
2022/08/03 05:33:42;;;;;;;10.85;7.15;;;;;;;24.76;64.63;100476.84;5073694;28;20478;-63
2022/08/03 05:36:07;;;;;;;9.23;8.32;;;;;;;24.93;63.74;100479.88;5064645;28;20020;-65
2022/08/03 05:38:33;;;;;;;10.07;7.47;;;;;;;25.08;63.25;100480.41;5065906;28;20021;-66
2022/08/03 05:40:58;;;;;;;9.07;8.20;;;;;;;25.15;62.32;100472.94;5068811;28;20042;-64
2022/08/03 05:43:24;;;;;;;11.68;7.95;;;;;;;25.19;61.48;100461.28;5048883;28;20074;-64
2022/08/03 05:45:50;;;;;;;8.27;7.47;;;;;;;25.45;61.18;100482.19;5057787;28;20874;-64
2022/08/03 05:48:15;;;;;;;12.13;8.27;;;;;;;25.57;60.87;100485.88;5049351;28;20141;-65
2022/08/03 05:50:41;;;;;;;8.52;7.22;;;;;;;25.72;60.71;100486.31;5080079;28;20039;-64
2022/08/03 05:53:06;;;;;;;7.95;7.25;;;;;;;25.88;60.03;100489.31;5088768;28;20056;-64
2022/08/03 05:55:32;;;;;;;11.63;8.10;;;;;;;26.02;59.31;100482.59;5081217;28;20466;-65
2022/08/03 05:57:57;;;;;;;8.48;7.30;;;;;;;26.10;59.00;100486.94;5086283;28;20020;-65
2022/08/03 06:00:23;;;;;;;10.00;6.90;;;;;;;26.11;58.76;100469.38;5073471;28;20085;-63
2022/08/03 06:02:49;;;;;;;9.40;7.90;;;;;;;26.34;58.20;100488.72;5079720;28;20032;-64
2022/08/03 06:05:14;;;;;;;9.32;7.97;;;;;;;26.49;57.86;100498.25;5083933;28;20090;-64
2022/08/03 06:07:40;;;;;;;9.80;7.65;;;;;;;26.61;57.32;100500.22;5071436;28;20028;-64
2022/08/03 06:10:06;;;;;;;8.68;7.75;;;;;;;26.72;56.53;100502.22;5083713;28;20028;-64
2022/08/03 06:12:34;;;;;;;8.43;7.35;;;;;;;26.81;56.15;100501.63;5086274;28;20028;-63
2022/08/03 06:15:00;;;;;;;9.00;7.70;;;;;;;26.87;55.78;100495.19;5079351;28;20020;-65
2022/08/03 06:17:26;;;;;;;14.10;6.97;;;;;;;26.97;55.53;100500.94;5068438;28;20032;-65
2022/08/03 06:19:52;;;;;;;8.68;7.45;;;;;;;27.08;55.18;100508.38;5073385;28;20043;-64
2022/08/03 06:22:18;;;;;;;10.00;6.80;;;;;;;27.22;55.13;100507.09;5077237;28;20487;-64
2022/08/03 06:24:44;;;;;;;11.25;7.65;;;;;;;27.39;54.71;100513.59;5061637;28;20056;-64
2022/08/03 06:27:11;;;;;;;9.30;7.22;;;;;;;27.50;54.42;100512.75;5076065;28;20101;-65
2022/08/03 06:29:36;;;;;;;12.43;7.28;;;;;;;27.60;53.68;100501.97;5088420;28;20020;-65
2022/08/03 06:32:02;;;;;;;11.77;6.93;;;;;;;27.74;53.12;100510.81;5082678;28;20289;-65
2022/08/03 06:34:27;;;;;;;10.25;7.10;;;;;;;27.91;52.96;100515.41;5088096;28;20032;-63
2022/08/03 06:36:53;;;;;;;13.77;7.55;;;;;;;28.04;52.40;100503.25;5087824;28;20054;-64
2022/08/03 06:39:20;;;;;;;11.32;7.07;;;;;;;28.14;51.61;100506.22;5080753;28;20016;-63
2022/08/03 06:41:45;;;;;;;8.32;6.68;;;;;;;28.29;51.49;100512.06;5084047;28;20036;-64
2022/08/03 06:44:11;;;;;;;9.65;7.05;;;;;;;28.37;51.52;100503.38;5087296;28;21332;-65
2022/08/03 06:46:37;;;;;;;7.28;6.68;;;;;;;28.57;50.83;100522.31;5084748;28;20389;-64
2022/08/03 06:49:02;;;;;;;10.10;7.28;;;;;;;28.70;49.92;100520.09;5069308;28;20032;-64
2022/08/03 06:51:28;;;;;;;7.32;6.63;;;;;;;28.80;49.41;100513.91;5088138;28;20035;-65
2022/08/03 06:53:53;;;;;;;8.55;7.20;;;;;;;28.93;49.23;100513.59;5085931;28;20036;-64
2022/08/03 06:56:19;;;;;;;9.25;7.20;;;;;;;28.97;48.85;100509.22;5067519;28;20031;-64
2022/08/03 06:58:46;;;;;;;10.20;6.85;;;;;;;29.12;48.83;100520.59;5081138;28;20847;-64
2022/08/03 07:01:11;;;;;;;9.50;6.38;;;;;;;29.05;48.65;100509.69;5083474;28;20035;-64
2022/08/03 07:03:37;;;;;;;8.30;6.65;;;;;;;29.25;47.99;100528.53;5071677;28;20040;-65
2022/08/03 07:06:03;;;;;;;11.00;6.65;;;;;;;29.34;48.12;100518.75;5087860;28;20385;-63
2022/08/03 07:08:28;;;;;;;8.02;7.18;;;;;;;29.39;47.67;100519.66;5077937;28;20549;-65
2022/08/03 07:10:53;;;;;;;9.25;6.80;;;;;;;29.50;47.70;100520.69;5067962;28;20029;-64
2022/08/03 07:13:19;;;;;;;8.23;6.53;;;;;;;29.58;47.69;100520.22;5076174;28;20030;-66
2022/08/03 07:15:44;;;;;;;9.73;6.75;;;;;;;29.70;47.18;100521.00;5074735;28;20127;-65
2022/08/03 07:18:10;;;;;;;7.10;6.40;;;;;;;29.81;46.82;100520.91;5079833;28;20077;-64
2022/08/03 07:20:35;;;;;;;6.00;5.50;;;;;;;29.95;46.41;100522.19;5073838;28;20024;-65
2022/08/03 07:23:01;;;;;;;6.93;5.97;;;;;;;30.04;45.80;100522.56;5079599;28;20097;-65
2022/08/03 07:25:26;;;;;;;9.52;6.80;;;;;;;30.10;45.95;100522.41;5080411;28;20024;-65
2022/08/03 07:27:52;;;;;;;9.70;6.68;;;;;;;30.13;45.87;100507.22;5076604;28;20039;-65
2022/08/03 07:30:17;;;;;;;9.10;6.38;;;;;;;30.14;45.90;100517.19;5079244;28;20051;-65
2022/08/03 07:32:43;;;;;;;7.63;5.85;;;;;;;30.19;44.84;100514.53;5087678;28;20044;-65
2022/08/03 07:35:09;;;;;;;7.03;6.22;;;;;;;30.17;45.06;100502.81;5063415;28;20055;-65
2022/08/03 07:37:36;;;;;;;7.80;5.93;;;;;;;30.27;45.38;100523.19;5063574;28;20032;-64
2022/08/03 07:40:03;;;;;;;7.20;6.60;;;;;;;30.35;45.08;100520.00;5074985;28;20075;-64
2022/08/03 07:42:29;;;;;;;7.00;6.30;;;;;;;30.36;44.91;100505.03;5082662;28;20028;-66
2022/08/03 07:44:55;;;;;;;7.45;6.18;;;;;;;30.44;44.42;100512.06;5084570;28;20034;-66
2022/08/03 07:47:23;;;;;;;9.60;6.40;;;;;;;30.49;44.49;100506.56;5070685;28;20447;-65
2022/08/03 07:49:49;;;;;;;6.72;6.18;;;;;;;30.46;44.66;100505.16;5077454;28;20034;-65
2022/08/03 07:54:58;;;;;;;;;;;;;;;30.65;43.97;100513.94;5083901;28;20036;-65
2022/08/03 07:57:23;;;;;;;6.97;5.85;;;;;;;30.65;43.93;100497.31;5085246;28;19916;-65
2022/08/03 07:59:49;;;;;;;11.10;6.70;;;;;;;30.61;44.12;100501.72;5076753;28;20052;-65
2022/08/03 08:02:14;;;;;;;7.88;6.35;;;;;;;30.62;44.03;100506.16;5084455;28;20052;-65
2022/08/03 08:04:40;;;;;;;9.93;6.50;;;;;;;30.67;44.56;100505.38;5086677;28;20095;-65
2022/08/03 08:07:06;;;;;;;9.05;6.40;;;;;;;30.71;44.17;100509.28;5079177;28;20028;-65
2022/08/03 08:09:33;;;;;;;6.75;5.75;;;;;;;30.77;43.88;100511.91;5068893;28;20030;-64
2022/08/03 08:11:58;;;;;;;9.32;6.20;;;;;;;30.85;43.05;100513.38;5068194;28;20118;-64
2022/08/03 08:14:24;;;;;;;6.28;5.35;;;;;;;30.86;43.02;100509.47;5086721;28;20487;-64
2022/08/03 08:16:49;;;;;;;7.22;5.97;;;;;;;30.90;43.46;100516.16;5086656;28;20110;-64
2022/08/03 08:19:15;;;;;;;8.18;5.85;;;;;;;30.91;43.17;100504.81;5077674;28;20112;-64
2022/08/03 08:21:42;;;;;;;6.70;6.07;;;;;;;30.99;43.27;100509.91;5066508;28;20036;-64
2022/08/03 08:24:07;;;;;;;6.47;5.82;;;;;;;31.01;43.25;100521.53;5066079;28;20083;-64
2022/08/03 08:26:33;;;;;;;9.57;5.78;;;;;;;31.10;42.92;100513.56;5066599;28;20090;-64
2022/08/03 08:28:58;;;;;;;8.48;5.72;;;;;;;31.08;42.74;100507.47;5066046;28;20028;-64
2022/08/03 08:31:24;;;;;;;9.55;6.18;;;;;;;31.13;42.50;100516.66;5068707;28;20024;-64
2022/08/03 08:33:49;;;;;;;11.40;6.65;;;;;;;31.13;42.37;100513.91;5051208;28;20086;-63
2022/08/03 08:36:15;;;;;;;8.05;5.80;;;;;;;31.24;42.26;100512.88;5071837;28;20040;-64
2022/08/03 08:38:43;;;;;;;9.13;5.35;;;;;;;31.24;41.73;100506.50;5079040;28;20036;-66
2022/08/03 08:41:10;;;;;;;5.95;5.43;;;;;;;31.34;41.44;100515.75;5066238;28;20110;-66
2022/08/03 08:43:35;;;;;;;5.93;5.40;;;;;;;31.37;41.17;100517.19;5066669;28;20476;-65
2022/08/03 08:46:02;;;;;;;5.93;5.13;;;;;;;31.39;41.51;100501.09;5065990;28;20036;-65
2022/08/03 08:48:29;;;;;;;7.97;6.20;;;;;;;31.46;41.17;100508.09;5071508;28;20031;-67
2022/08/03 08:50:56;;;;;;;8.35;6.07;;;;;;;31.34;41.36;100489.97;5086665;28;20040;-68
2022/08/03 08:53:26;;;;;;;5.65;5.05;;;;;;;31.44;40.91;100503.91;5085998;28;20077;-66
2022/08/03 08:55:57;;;;;;;7.35;5.53;;;;;;;31.38;41.13;100508.59;5086398;28;20055;-66
2022/08/03 08:58:25;;;;;;;6.25;5.63;;;;;;;31.42;40.92;100497.78;5086159;28;20469;-67
2022/08/03 09:00:50;;;;;;;7.20;5.43;;;;;;;31.36;40.50;100499.69;5086306;28;20043;-67
2022/08/03 09:03:16;;;;;;;8.30;5.40;;;;;;;31.34;40.35;100492.75;5086275;28;20031;-65
2022/08/03 09:05:43;;;;;;;5.80;4.68;;;;;;;31.44;40.11;100502.00;5085857;28;20039;-66
2022/08/03 09:08:08;;;;;;;5.53;4.97;;;;;;;31.53;39.42;100500.38;5085704;28;20115;-66
2022/08/03 09:10:34;;;;;;;5.22;4.72;;;;;;;31.61;39.81;100499.88;5066279;28;20103;-67
2022/08/03 09:13:00;;;;;;;6.28;5.68;;;;;;;31.65;39.58;100494.63;5065597;28;20036;-66
2022/08/03 09:15:30;;;;;;;5.00;4.60;;;;;;;31.71;39.73;100497.16;5066282;28;20028;-66
2022/08/03 09:17:58;;;;;;;6.05;5.00;;;;;;;31.80;39.41;100498.38;5065921;28;20032;-66
2022/08/03 09:20:28;;;;;;;7.18;4.70;;;;;;;31.87;39.27;100501.75;5065945;28;20103;-66
2022/08/03 09:23:07;;;;;;;4.80;4.40;;;;;;;31.94;38.23;100495.94;5066318;28;20041;-66
2022/08/03 09:25:37;;;;;;;5.63;4.47;;;;;;;31.88;37.45;100483.97;5067290;28;20374;-66
2022/08/03 09:28:12;;;;;;;6.95;4.63;;;;;;;32.01;37.65;100500.13;5069016;28;20040;-66
2022/08/03 09:30:42;;;;;;;5.45;4.95;;;;;;;32.07;38.04;100493.50;5069884;28;20035;-66
2022/08/03 09:33:10;;;;;;;8.23;5.25;;;;;;;32.05;38.20;100475.47;5069376;28;20028;-66
2022/08/03 09:35:45;;;;;;;6.93;4.50;;;;;;;32.07;38.14;100493.50;5069751;28;20040;-66
2022/08/03 09:38:30;;;;;;;7.28;4.63;;;;;;;32.15;37.57;100487.41;5070165;28;20119;-66
2022/08/03 09:40:56;;;;;;;7.00;4.78;;;;;;;32.20;37.81;100481.06;5086847;28;20035;-64
2022/08/03 09:43:24;;;;;;;6.25;4.82;;;;;;;32.13;37.88;100467.44;5089568;28;20024;-65
2022/08/03 09:45:51;;;;;;;6.00;4.50;;;;;;;32.30;38.10;100478.31;5089931;28;20477;-65
2022/08/03 09:48:31;;;;;;;5.88;4.97;;;;;;;32.33;37.74;100470.31;5089282;28;20393;-65
2022/08/03 09:50:59;;;;;;;4.43;4.05;;;;;;;32.36;37.49;100483.66;5089917;28;20054;-65
2022/08/03 09:53:25;;;;;;;7.00;4.45;;;;;;;32.37;37.19;100470.63;5089644;28;20114;-65
2022/08/03 09:55:55;;;;;;;9.43;5.20;;;;;;;32.37;37.74;100465.06;5089518;28;20030;-65
2022/08/03 09:58:22;;;;;;;5.43;4.25;;;;;;;32.38;37.83;100463.94;5089038;28;20111;-67
2022/08/03 10:01:02;;;;;;;5.28;4.78;;;;;;;32.33;37.52;100469.47;5089250;28;20489;-67
2022/08/03 10:03:33;;;;;;;16.60;5.03;;;;;;;32.17;36.86;100457.44;5089223;28;20024;-67
2022/08/03 10:06:21;;;;;;;8.13;4.28;;;;;;;32.05;37.52;100451.28;5070804;28;20482;-67
2022/08/03 10:09:03;;;;;;;4.90;4.30;;;;;;;32.05;37.86;100465.16;5088988;28;20051;-65
2022/08/03 10:11:29;;;;;;;5.85;4.47;;;;;;;32.03;37.48;100453.53;5075256;28;20025;-66
2022/08/03 10:13:55;;;;;;;4.53;4.13;;;;;;;31.99;37.56;100432.13;5068987;28;20040;-64
2022/08/03 10:16:21;;;;;;;4.43;3.90;;;;;;;32.18;37.59;100444.41;5064837;28;20032;-64
2022/08/03 10:18:47;;;;;;;4.72;4.32;;;;;;;32.34;37.63;100449.75;5070512;28;20023;-64
2022/08/03 10:21:16;;;;;;;6.80;4.40;;;;;;;32.44;37.00;100449.78;5070844;28;20051;-64
2022/08/03 10:23:42;;;;;;;5.25;4.40;;;;;;;32.51;37.17;100444.81;5089696;28;20032;-64
2022/08/03 10:26:11;;;;;;;5.95;4.75;;;;;;;32.54;37.39;100426.75;5088732;28;20028;-64
2022/08/03 10:28:41;;;;;;;4.50;4.10;;;;;;;32.50;36.63;100448.69;5089007;28;20472;-64
2022/08/03 10:31:09;;;;;;;5.35;4.65;;;;;;;32.41;37.01;100435.63;5068980;28;20035;-65
2022/08/03 10:33:41;;;;;;;5.10;4.30;;;;;;;32.29;36.84;100433.06;5068658;28;20036;-65
2022/08/03 10:36:08;;;;;;;4.55;4.15;;;;;;;32.19;37.02;100433.03;5067337;28;20056;-64
2022/08/03 10:38:46;;;;;;;4.43;4.03;;;;;;;32.11;36.49;100429.97;5049769;28;20044;-64
2022/08/03 10:41:12;;;;;;;4.32;3.92;;;;;;;32.03;36.67;100431.31;5068299;28;20144;-65
2022/08/03 10:44:06;;;;;;;5.10;4.45;;;;;;;31.99;36.32;100423.81;5071446;28;20454;-64
2022/08/03 10:46:34;;;;;;;6.97;4.53;;;;;;;31.95;36.82;100423.50;5088564;28;20046;-65
2022/08/03 10:49:01;;;;;;;6.30;3.78;;;;;;;32.01;37.25;100418.78;5077557;28;20105;-64
2022/08/03 10:51:30;;;;;;;5.22;3.67;;;;;;;32.11;36.38;100422.44;5078478;28;20044;-65
2022/08/03 10:53:58;;;;;;;4.97;3.92;;;;;;;32.02;36.47;100407.41;5068177;28;20039;-66
2022/08/03 10:59:45;;;;;;;4.82;3.75;;;;;;;32.18;36.14;100411.91;5068018;28;20085;-64
2022/08/03 11:02:12;;;;;;;8.10;4.35;;;;;;;32.11;36.18;100410.53;5068174;28;20024;-65
2022/08/03 11:04:38;;;;;;;4.10;3.70;;;;;;;32.04;36.13;100413.53;5077640;28;20028;-64
2022/08/03 11:07:16;;;;;;;4.78;3.92;;;;;;;32.01;36.16;100403.00;5087672;28;20091;-65
2022/08/03 11:09:49;;;;;;;4.07;3.67;;;;;;;31.99;36.46;100405.22;5088037;28;20440;-67
2022/08/03 11:12:27;;;;;;;4.20;3.90;;;;;;;31.97;36.45;100404.66;5088054;28;20028;-67
2022/08/03 11:14:54;;;;;;;4.32;3.92;;;;;;;31.94;36.37;100396.88;5087783;28;20486;-66
2022/08/03 11:17:21;;;;;;;5.57;3.70;;;;;;;31.85;36.68;100395.72;5087905;28;20044;-67
2022/08/03 11:19:48;;;;;;;5.10;3.72;;;;;;;31.87;36.83;100393.50;5057536;28;20036;-66
2022/08/03 11:22:15;;;;;;;7.50;4.30;;;;;;;31.90;36.18;100392.13;5089374;28;20493;-67
2022/08/03 11:24:52;;;;;;;4.63;3.83;;;;;;;31.97;36.33;100384.38;5087966;28;20474;-67
2022/08/03 11:27:29;;;;;;;4.50;3.55;;;;;;;32.08;36.11;100383.31;5087401;28;20535;-67
2022/08/03 11:30:07;;;;;;;3.80;3.05;;;;;;;32.16;35.81;100383.59;5087735;28;20427;-67
2022/08/03 11:32:36;;;;;;;3.90;3.50;;;;;;;32.20;35.65;100381.94;5087358;28;20020;-67
2022/08/03 11:35:13;;;;;;;4.43;3.70;;;;;;;32.20;35.64;100383.88;5087346;28;20036;-67
2022/08/03 11:37:56;;;;;;;6.55;4.20;;;;;;;32.16;36.32;100380.84;5087508;28;20043;-66
2022/08/03 11:40:41;;;;;;;5.22;4.40;;;;;;;32.10;36.65;100375.53;5087205;28;20110;-67
2022/08/03 11:43:28;;;;;;;4.72;4.07;;;;;;;32.06;36.83;100380.81;5064331;28;20414;-66